sensor_id;sensor_type;location;lat;lon;timestamp;temperature;humidity
1155;DHT22;566;48.414;9.118;2023-04-06T00:01:38;0.20;91.90
1155;DHT22;566;48.414;9.118;2023-04-06T00:04:03;0.20;92.80
1155;DHT22;566;48.414;9.118;2023-04-06T00:06:29;0.10;93.00
1155;DHT22;566;48.414;9.118;2023-04-06T00:08:55;0.00;93.00
1155;DHT22;566;48.414;9.118;2023-04-06T00:11:21;0.00;92.50
1155;DHT22;566;48.414;9.118;2023-04-06T00:13:47;0.00;92.70
1155;DHT22;566;48.414;9.118;2023-04-06T00:16:12;-0.10;93.60
1155;DHT22;566;48.414;9.118;2023-04-06T00:18:41;-0.10;93.40
1155;DHT22;566;48.414;9.118;2023-04-06T00:21:11;-0.20;94.00
1155;DHT22;566;48.414;9.118;2023-04-06T00:23:38;-0.20;93.70
1155;DHT22;566;48.414;9.118;2023-04-06T00:26:04;-0.20;93.50
1155;DHT22;566;48.414;9.118;2023-04-06T00:28:29;-0.10;93.10
1155;DHT22;566;48.414;9.118;2023-04-06T00:30:55;-0.10;93.30
1155;DHT22;566;48.414;9.118;2023-04-06T00:33:22;-0.10;93.60
1155;DHT22;566;48.414;9.118;2023-04-06T00:35:48;-0.20;94.00
1155;DHT22;566;48.414;9.118;2023-04-06T00:38:14;-0.40;94.20
1155;DHT22;566;48.414;9.118;2023-04-06T00:40:40;-0.30;93.60
1155;DHT22;566;48.414;9.118;2023-04-06T00:43:06;-0.30;93.10
1155;DHT22;566;48.414;9.118;2023-04-06T00:45:33;-0.30;93.20
1155;DHT22;566;48.414;9.118;2023-04-06T00:47:58;-0.10;92.40
1155;DHT22;566;48.414;9.118;2023-04-06T00:50:24;0.00;92.00
1155;DHT22;566;48.414;9.118;2023-04-06T00:52:54;0.00;91.40
1155;DHT22;566;48.414;9.118;2023-04-06T00:55:20;0.20;90.80
1155;DHT22;566;48.414;9.118;2023-04-06T00:57:48;0.10;90.50
1155;DHT22;566;48.414;9.118;2023-04-06T01:00:16;0.20;90.30
1155;DHT22;566;48.414;9.118;2023-04-06T01:02:42;0.20;90.20
1155;DHT22;566;48.414;9.118;2023-04-06T01:05:08;0.10;90.20
1155;DHT22;566;48.414;9.118;2023-04-06T01:07:33;0.10;90.90
1155;DHT22;566;48.414;9.118;2023-04-06T01:09:59;0.00;91.00
1155;DHT22;566;48.414;9.118;2023-04-06T01:12:25;0.00;90.90
1155;DHT22;566;48.414;9.118;2023-04-06T01:14:50;0.00;90.70
1155;DHT22;566;48.414;9.118;2023-04-06T01:17:16;0.00;91.00
1155;DHT22;566;48.414;9.118;2023-04-06T01:19:42;-0.10;90.90
1155;DHT22;566;48.414;9.118;2023-04-06T01:22:07;-0.10;91.00
1155;DHT22;566;48.414;9.118;2023-04-06T01:24:33;-0.20;91.60
1155;DHT22;566;48.414;9.118;2023-04-06T01:26:59;-0.40;92.10
1155;DHT22;566;48.414;9.118;2023-04-06T01:29:25;-0.40;92.20
1155;DHT22;566;48.414;9.118;2023-04-06T01:31:51;-0.40;92.60
1155;DHT22;566;48.414;9.118;2023-04-06T01:34:17;-0.40;92.60
1155;DHT22;566;48.414;9.118;2023-04-06T01:36:42;-0.50;92.90
1155;DHT22;566;48.414;9.118;2023-04-06T01:39:08;-0.60;93.60
1155;DHT22;566;48.414;9.118;2023-04-06T01:41:34;-0.70;93.80
1155;DHT22;566;48.414;9.118;2023-04-06T01:43:59;-0.80;94.20
1155;DHT22;566;48.414;9.118;2023-04-06T01:46:25;-0.80;94.20
1155;DHT22;566;48.414;9.118;2023-04-06T01:48:51;-0.70;93.60
1155;DHT22;566;48.414;9.118;2023-04-06T01:51:17;-0.70;93.50
1155;DHT22;566;48.414;9.118;2023-04-06T01:53:42;-0.70;93.20
1155;DHT22;566;48.414;9.118;2023-04-06T01:56:08;-0.60;92.60
1155;DHT22;566;48.414;9.118;2023-04-06T01:58:33;-0.40;91.70
1155;DHT22;566;48.414;9.118;2023-04-06T02:00:59;-0.30;91.30
1155;DHT22;566;48.414;9.118;2023-04-06T02:03:25;-0.20;90.40
1155;DHT22;566;48.414;9.118;2023-04-06T02:05:51;-0.10;90.10
1155;DHT22;566;48.414;9.118;2023-04-06T02:08:16;-0.10;90.00
1155;DHT22;566;48.414;9.118;2023-04-06T02:10:42;-0.10;89.90
1155;DHT22;566;48.414;9.118;2023-04-06T02:13:07;-0.10;89.90
1155;DHT22;566;48.414;9.118;2023-04-06T02:15:33;0.00;89.20
1155;DHT22;566;48.414;9.118;2023-04-06T02:17:59;0.00;89.30
1155;DHT22;566;48.414;9.118;2023-04-06T02:20:25;-0.10;89.30
1155;DHT22;566;48.414;9.118;2023-04-06T02:22:50;-0.20;90.10
1155;DHT22;566;48.414;9.118;2023-04-06T02:25:16;-0.20;89.70
1155;DHT22;566;48.414;9.118;2023-04-06T02:27:42;-0.10;89.30
1155;DHT22;566;48.414;9.118;2023-04-06T02:30:08;-0.10;89.90
1155;DHT22;566;48.414;9.118;2023-04-06T02:32:33;-0.10;89.30
1155;DHT22;566;48.414;9.118;2023-04-06T02:34:59;0.00;89.40
1155;DHT22;566;48.414;9.118;2023-04-06T02:37:25;0.00;89.20
1155;DHT22;566;48.414;9.118;2023-04-06T02:39:51;0.10;88.90
1155;DHT22;566;48.414;9.118;2023-04-06T02:42:16;0.00;88.90
1155;DHT22;566;48.414;9.118;2023-04-06T02:44:42;0.00;89.20
1155;DHT22;566;48.414;9.118;2023-04-06T02:47:08;-0.10;89.00
1155;DHT22;566;48.414;9.118;2023-04-06T02:49:33;-0.20;89.70
1155;DHT22;566;48.414;9.118;2023-04-06T02:51:59;-0.20;90.10
1155;DHT22;566;48.414;9.118;2023-04-06T02:54:25;-0.20;89.70
1155;DHT22;566;48.414;9.118;2023-04-06T02:56:53;-0.20;89.70
1155;DHT22;566;48.414;9.118;2023-04-06T02:59:19;-0.20;89.60
1155;DHT22;566;48.414;9.118;2023-04-06T03:01:47;-0.20;89.70
1155;DHT22;566;48.414;9.118;2023-04-06T03:04:14;-0.20;89.70
1155;DHT22;566;48.414;9.118;2023-04-06T03:06:39;-0.20;90.00
1155;DHT22;566;48.414;9.118;2023-04-06T03:09:06;-0.20;89.70
1155;DHT22;566;48.414;9.118;2023-04-06T03:11:31;-0.20;89.70
1155;DHT22;566;48.414;9.118;2023-04-06T03:13:57;-0.20;90.00
1155;DHT22;566;48.414;9.118;2023-04-06T03:16:22;-0.20;89.70
1155;DHT22;566;48.414;9.118;2023-04-06T03:18:48;-0.30;89.90
1155;DHT22;566;48.414;9.118;2023-04-06T03:21:14;-0.30;90.10
1155;DHT22;566;48.414;9.118;2023-04-06T03:23:43;-0.40;90.50
1155;DHT22;566;48.414;9.118;2023-04-06T03:26:08;-0.50;90.70
1155;DHT22;566;48.414;9.118;2023-04-06T03:28:34;-0.40;90.50
1155;DHT22;566;48.414;9.118;2023-04-06T03:31:01;-0.40;90.10
1155;DHT22;566;48.414;9.118;2023-04-06T03:33:26;-0.30;89.80
1155;DHT22;566;48.414;9.118;2023-04-06T03:35:53;-0.30;89.60
1155;DHT22;566;48.414;9.118;2023-04-06T03:38:18;-0.20;89.40
1155;DHT22;566;48.414;9.118;2023-04-06T03:40:44;-0.10;88.70
1155;DHT22;566;48.414;9.118;2023-04-06T03:43:10;-0.10;88.80
1155;DHT22;566;48.414;9.118;2023-04-06T03:45:35;-0.10;88.80
1155;DHT22;566;48.414;9.118;2023-04-06T03:48:01;-0.10;88.80
1155;DHT22;566;48.414;9.118;2023-04-06T03:50:26;-0.30;89.10
1155;DHT22;566;48.414;9.118;2023-04-06T03:52:55;-0.40;89.70
1155;DHT22;566;48.414;9.118;2023-04-06T03:55:20;-0.50;90.60
1155;DHT22;566;48.414;9.118;2023-04-06T03:57:46;-0.70;90.70
1155;DHT22;566;48.414;9.118;2023-04-06T04:00:12;-0.80;91.30
1155;DHT22;566;48.414;9.118;2023-04-06T04:02:38;-0.80;91.80
1155;DHT22;566;48.414;9.118;2023-04-06T04:05:04;-0.90;92.20
1155;DHT22;566;48.414;9.118;2023-04-06T04:07:29;-1.00;92.60
1155;DHT22;566;48.414;9.118;2023-04-06T04:09:55;-1.10;93.20
1155;DHT22;566;48.414;9.118;2023-04-06T04:12:21;-1.10;93.60
1155;DHT22;566;48.414;9.118;2023-04-06T04:14:46;-1.20;93.60
1155;DHT22;566;48.414;9.118;2023-04-06T04:17:12;-1.20;93.70
1155;DHT22;566;48.414;9.118;2023-04-06T04:19:37;-1.30;93.70
1155;DHT22;566;48.414;9.118;2023-04-06T04:22:03;-1.30;94.10
1155;DHT22;566;48.414;9.118;2023-04-06T04:24:30;-1.30;94.00
1155;DHT22;566;48.414;9.118;2023-04-06T04:26:56;-1.10;93.50
1155;DHT22;566;48.414;9.118;2023-04-06T04:29:22;-0.90;92.80
1155;DHT22;566;48.414;9.118;2023-04-06T04:31:48;-0.80;92.20
1155;DHT22;566;48.414;9.118;2023-04-06T04:34:14;-0.80;92.00
1155;DHT22;566;48.414;9.118;2023-04-06T04:36:40;-0.70;91.70
1155;DHT22;566;48.414;9.118;2023-04-06T04:39:07;-0.70;91.60
1155;DHT22;566;48.414;9.118;2023-04-06T04:41:33;-0.80;91.70
1155;DHT22;566;48.414;9.118;2023-04-06T04:43:58;-0.90;92.00
1155;DHT22;566;48.414;9.118;2023-04-06T04:46:24;-1.10;92.90
1155;DHT22;566;48.414;9.118;2023-04-06T04:48:49;-1.20;93.30
1155;DHT22;566;48.414;9.118;2023-04-06T04:51:15;-1.20;93.30
1155;DHT22;566;48.414;9.118;2023-04-06T04:53:41;-1.20;93.40
1155;DHT22;566;48.414;9.118;2023-04-06T04:56:06;-1.30;94.30
1155;DHT22;566;48.414;9.118;2023-04-06T04:58:32;-1.40;94.70
1155;DHT22;566;48.414;9.118;2023-04-06T05:00:57;-1.60;95.30
1155;DHT22;566;48.414;9.118;2023-04-06T05:03:24;-1.70;95.80
1155;DHT22;566;48.414;9.118;2023-04-06T05:05:50;-1.80;95.90
1155;DHT22;566;48.414;9.118;2023-04-06T05:08:16;-1.80;96.30
1155;DHT22;566;48.414;9.118;2023-04-06T05:10:42;-1.80;96.40
1155;DHT22;566;48.414;9.118;2023-04-06T05:13:08;-1.80;96.60
1155;DHT22;566;48.414;9.118;2023-04-06T05:15:34;-1.90;96.70
1155;DHT22;566;48.414;9.118;2023-04-06T05:18:15;-1.90;96.70
1155;DHT22;566;48.414;9.118;2023-04-06T05:20:40;-1.90;97.10
1155;DHT22;566;48.414;9.118;2023-04-06T05:23:07;-1.80;97.20
1155;DHT22;566;48.414;9.118;2023-04-06T05:25:33;-1.80;97.00
1155;DHT22;566;48.414;9.118;2023-04-06T05:28:00;-1.80;97.00
1155;DHT22;566;48.414;9.118;2023-04-06T05:30:28;-1.70;97.00
1155;DHT22;566;48.414;9.118;2023-04-06T05:32:54;-1.70;97.00
1155;DHT22;566;48.414;9.118;2023-04-06T05:35:19;-1.70;96.90
1155;DHT22;566;48.414;9.118;2023-04-06T05:37:45;-1.70;97.10
1155;DHT22;566;48.414;9.118;2023-04-06T05:40:11;-1.80;97.20
1155;DHT22;566;48.414;9.118;2023-04-06T05:42:41;-1.80;97.30
1155;DHT22;566;48.414;9.118;2023-04-06T05:45:08;-1.70;97.50
1155;DHT22;566;48.414;9.118;2023-04-06T05:47:34;-1.60;97.30
1155;DHT22;566;48.414;9.118;2023-04-06T05:50:00;-1.40;97.00
1155;DHT22;566;48.414;9.118;2023-04-06T05:52:26;-1.30;96.70
1155;DHT22;566;48.414;9.118;2023-04-06T05:54:52;-1.30;96.60
1155;DHT22;566;48.414;9.118;2023-04-06T05:57:17;-1.20;96.50
1155;DHT22;566;48.414;9.118;2023-04-06T05:59:43;-1.00;96.50
1155;DHT22;566;48.414;9.118;2023-04-06T06:02:09;-0.90;96.50
1155;DHT22;566;48.414;9.118;2023-04-06T06:04:35;-0.70;96.20
1155;DHT22;566;48.414;9.118;2023-04-06T06:07:00;-0.50;95.20
1155;DHT22;566;48.414;9.118;2023-04-06T06:09:29;-0.30;94.50
1155;DHT22;566;48.414;9.118;2023-04-06T06:11:55;0.00;93.70
1155;DHT22;566;48.414;9.118;2023-04-06T06:14:20;0.20;93.40
1155;DHT22;566;48.414;9.118;2023-04-06T06:16:47;0.70;92.60
1155;DHT22;566;48.414;9.118;2023-04-06T06:19:12;1.40;90.50
1155;DHT22;566;48.414;9.118;2023-04-06T06:21:38;1.90;88.30
1155;DHT22;566;48.414;9.118;2023-04-06T06:24:03;2.30;87.30
1155;DHT22;566;48.414;9.118;2023-04-06T06:26:29;2.80;86.50
1155;DHT22;566;48.414;9.118;2023-04-06T06:28:55;3.40;84.80
1155;DHT22;566;48.414;9.118;2023-04-06T06:31:20;3.70;82.50
1155;DHT22;566;48.414;9.118;2023-04-06T06:33:48;3.60;81.40
1155;DHT22;566;48.414;9.118;2023-04-06T06:36:16;3.30;81.40
1155;DHT22;566;48.414;9.118;2023-04-06T06:38:42;3.00;82.30
1155;DHT22;566;48.414;9.118;2023-04-06T06:41:08;2.90;83.10
1155;DHT22;566;48.414;9.118;2023-04-06T06:43:33;2.80;83.50
1155;DHT22;566;48.414;9.118;2023-04-06T06:45:59;2.80;83.30
1155;DHT22;566;48.414;9.118;2023-04-06T06:48:24;2.70;83.60
1155;DHT22;566;48.414;9.118;2023-04-06T06:50:50;2.80;84.00
1155;DHT22;566;48.414;9.118;2023-04-06T06:53:19;2.80;84.60
1155;DHT22;566;48.414;9.118;2023-04-06T06:55:45;2.90;84.40
1155;DHT22;566;48.414;9.118;2023-04-06T06:58:11;2.90;84.10
1155;DHT22;566;48.414;9.118;2023-04-06T07:00:36;3.00;83.70
1155;DHT22;566;48.414;9.118;2023-04-06T07:03:02;3.10;82.90
1155;DHT22;566;48.414;9.118;2023-04-06T07:05:27;3.10;82.00
1155;DHT22;566;48.414;9.118;2023-04-06T07:07:54;3.10;81.90
1155;DHT22;566;48.414;9.118;2023-04-06T07:10:20;3.30;81.70
1155;DHT22;566;48.414;9.118;2023-04-06T07:12:45;3.50;81.00
1155;DHT22;566;48.414;9.118;2023-04-06T07:15:11;3.70;80.40
1155;DHT22;566;48.414;9.118;2023-04-06T07:17:40;3.90;79.80
1155;DHT22;566;48.414;9.118;2023-04-06T07:20:10;4.10;78.80
1155;DHT22;566;48.414;9.118;2023-04-06T07:22:36;4.30;77.50
1155;DHT22;566;48.414;9.118;2023-04-06T07:25:01;4.60;76.90
1155;DHT22;566;48.414;9.118;2023-04-06T07:27:27;4.70;76.30
1155;DHT22;566;48.414;9.118;2023-04-06T07:29:52;4.80;76.30
1155;DHT22;566;48.414;9.118;2023-04-06T07:32:18;4.90;76.50
1155;DHT22;566;48.414;9.118;2023-04-06T07:34:43;5.20;76.40
1155;DHT22;566;48.414;9.118;2023-04-06T07:37:12;5.40;75.80
1155;DHT22;566;48.414;9.118;2023-04-06T07:39:38;5.60;72.90
1155;DHT22;566;48.414;9.118;2023-04-06T07:42:04;5.80;71.10
1155;DHT22;566;48.414;9.118;2023-04-06T07:44:29;5.90;71.60
1155;DHT22;566;48.414;9.118;2023-04-06T07:46:55;6.00;70.80
1155;DHT22;566;48.414;9.118;2023-04-06T07:49:21;6.10;70.80
1155;DHT22;566;48.414;9.118;2023-04-06T07:51:48;6.10;70.80
1155;DHT22;566;48.414;9.118;2023-04-06T07:54:13;6.20;71.10
1155;DHT22;566;48.414;9.118;2023-04-06T07:56:39;6.30;71.80
1155;DHT22;566;48.414;9.118;2023-04-06T07:59:04;6.50;71.70
1155;DHT22;566;48.414;9.118;2023-04-06T08:01:30;6.70;70.40
1155;DHT22;566;48.414;9.118;2023-04-06T08:03:56;6.80;67.20
1155;DHT22;566;48.414;9.118;2023-04-06T08:06:22;6.80;68.30
1155;DHT22;566;48.414;9.118;2023-04-06T08:08:47;7.30;68.30
1155;DHT22;566;48.414;9.118;2023-04-06T08:11:13;8.40;66.20
1155;DHT22;566;48.414;9.118;2023-04-06T08:13:39;9.50;62.80
1155;DHT22;566;48.414;9.118;2023-04-06T08:16:04;10.50;59.90
1155;DHT22;566;48.414;9.118;2023-04-06T08:18:30;10.90;59.80
1155;DHT22;566;48.414;9.118;2023-04-06T08:20:56;11.40;57.70
1155;DHT22;566;48.414;9.118;2023-04-06T08:23:22;11.70;57.20
1155;DHT22;566;48.414;9.118;2023-04-06T08:25:47;11.70;56.30
1155;DHT22;566;48.414;9.118;2023-04-06T08:28:13;12.20;56.10
1155;DHT22;566;48.414;9.118;2023-04-06T08:30:42;12.60;55.60
1155;DHT22;566;48.414;9.118;2023-04-06T08:33:08;13.70;54.40
1155;DHT22;566;48.414;9.118;2023-04-06T08:35:34;13.50;52.70
1155;DHT22;566;48.414;9.118;2023-04-06T08:37:59;13.20;53.80
1155;DHT22;566;48.414;9.118;2023-04-06T08:40:25;13.20;52.70
1155;DHT22;566;48.414;9.118;2023-04-06T08:42:59;13.40;53.70
1155;DHT22;566;48.414;9.118;2023-04-06T08:45:29;13.90;51.50
1155;DHT22;566;48.414;9.118;2023-04-06T08:47:56;13.90;52.10
1155;DHT22;566;48.414;9.118;2023-04-06T08:50:24;13.90;51.60
1155;DHT22;566;48.414;9.118;2023-04-06T08:52:52;13.10;52.10
1155;DHT22;566;48.414;9.118;2023-04-06T08:55:19;12.90;53.70
1155;DHT22;566;48.414;9.118;2023-04-06T08:57:45;13.50;52.40
1155;DHT22;566;48.414;9.118;2023-04-06T09:00:14;13.40;51.00
1155;DHT22;566;48.414;9.118;2023-04-06T09:02:43;14.20;49.80
1155;DHT22;566;48.414;9.118;2023-04-06T09:05:09;14.40;52.10
1155;DHT22;566;48.414;9.118;2023-04-06T09:07:36;14.00;50.30
1155;DHT22;566;48.414;9.118;2023-04-06T09:10:03;14.00;51.10
1155;DHT22;566;48.414;9.118;2023-04-06T09:12:30;15.00;50.60
1155;DHT22;566;48.414;9.118;2023-04-06T09:15:00;14.90;47.60
1155;DHT22;566;48.414;9.118;2023-04-06T09:17:30;14.20;48.30
1155;DHT22;566;48.414;9.118;2023-04-06T09:19:58;13.60;49.30
1155;DHT22;566;48.414;9.118;2023-04-06T09:22:24;13.20;49.10
1155;DHT22;566;48.414;9.118;2023-04-06T09:24:53;13.60;49.40
1155;DHT22;566;48.414;9.118;2023-04-06T09:27:37;13.30;50.00
1155;DHT22;566;48.414;9.118;2023-04-06T09:30:13;14.00;49.20
1155;DHT22;566;48.414;9.118;2023-04-06T09:32:53;13.50;50.30
1155;DHT22;566;48.414;9.118;2023-04-06T09:35:20;13.50;50.80
1155;DHT22;566;48.414;9.118;2023-04-06T09:37:47;13.20;50.50
1155;DHT22;566;48.414;9.118;2023-04-06T09:40:14;13.40;50.40
1155;DHT22;566;48.414;9.118;2023-04-06T09:42:45;13.60;49.10
1155;DHT22;566;48.414;9.118;2023-04-06T09:45:11;14.40;48.80
1155;DHT22;566;48.414;9.118;2023-04-06T09:47:37;14.90;49.70
1155;DHT22;566;48.414;9.118;2023-04-06T09:50:08;15.20;47.80
1155;DHT22;566;48.414;9.118;2023-04-06T09:52:46;15.40;46.90
1155;DHT22;566;48.414;9.118;2023-04-06T09:55:34;15.60;47.80
1155;DHT22;566;48.414;9.118;2023-04-06T09:58:05;15.30;47.50
1155;DHT22;566;48.414;9.118;2023-04-06T10:00:33;14.50;47.90
1155;DHT22;566;48.414;9.118;2023-04-06T10:05:37;15.70;47.10
1155;DHT22;566;48.414;9.118;2023-04-06T10:08:10;15.80;48.90
1155;DHT22;566;48.414;9.118;2023-04-06T10:10:37;16.60;48.70
1155;DHT22;566;48.414;9.118;2023-04-06T10:13:07;17.00;45.20
1155;DHT22;566;48.414;9.118;2023-04-06T10:15:33;16.20;45.00
1155;DHT22;566;48.414;9.118;2023-04-06T10:18:00;15.10;46.90
1155;DHT22;566;48.414;9.118;2023-04-06T10:23:13;14.60;48.30
1155;DHT22;566;48.414;9.118;2023-04-06T10:25:55;15.00;47.40
1155;DHT22;566;48.414;9.118;2023-04-06T10:28:21;14.50;47.80
1155;DHT22;566;48.414;9.118;2023-04-06T10:30:46;15.00;48.30
1155;DHT22;566;48.414;9.118;2023-04-06T10:33:19;15.40;46.50
1155;DHT22;566;48.414;9.118;2023-04-06T10:35:47;15.90;46.20
1155;DHT22;566;48.414;9.118;2023-04-06T10:38:12;16.20;45.00
1155;DHT22;566;48.414;9.118;2023-04-06T10:40:45;15.70;46.20
1155;DHT22;566;48.414;9.118;2023-04-06T10:43:20;15.00;48.00
1155;DHT22;566;48.414;9.118;2023-04-06T10:45:55;14.80;47.60
1155;DHT22;566;48.414;9.118;2023-04-06T10:48:21;14.20;47.50
1155;DHT22;566;48.414;9.118;2023-04-06T10:50:52;14.00;47.80
1155;DHT22;566;48.414;9.118;2023-04-06T10:53:23;14.40;48.70
1155;DHT22;566;48.414;9.118;2023-04-06T10:55:55;14.80;47.80
1155;DHT22;566;48.414;9.118;2023-04-06T10:58:25;14.00;48.40
1155;DHT22;566;48.414;9.118;2023-04-06T11:00:53;13.80;49.90
1155;DHT22;566;48.414;9.118;2023-04-06T11:03:19;14.20;49.60
1155;DHT22;566;48.414;9.118;2023-04-06T11:05:46;14.30;48.70
1155;DHT22;566;48.414;9.118;2023-04-06T11:08:31;13.90;47.70
1155;DHT22;566;48.414;9.118;2023-04-06T11:11:08;14.40;48.80
1155;DHT22;566;48.414;9.118;2023-04-06T11:13:42;15.00;47.30
1155;DHT22;566;48.414;9.118;2023-04-06T11:16:19;15.00;47.90
1155;DHT22;566;48.414;9.118;2023-04-06T11:21:43;14.60;46.90
1155;DHT22;566;48.414;9.118;2023-04-06T11:24:12;14.70;48.30
1155;DHT22;566;48.414;9.118;2023-04-06T11:26:49;14.40;47.00
1155;DHT22;566;48.414;9.118;2023-04-06T11:29:29;14.30;46.70
1155;DHT22;566;48.414;9.118;2023-04-06T11:32:05;14.50;45.90
1155;DHT22;566;48.414;9.118;2023-04-06T11:34:36;14.60;46.00
1155;DHT22;566;48.414;9.118;2023-04-06T11:37:08;14.90;46.60
1155;DHT22;566;48.414;9.118;2023-04-06T11:39:48;14.50;46.20
1155;DHT22;566;48.414;9.118;2023-04-06T11:42:26;14.30;46.70
1155;DHT22;566;48.414;9.118;2023-04-06T11:44:56;14.10;46.90
1155;DHT22;566;48.414;9.118;2023-04-06T11:47:33;14.20;47.00
1155;DHT22;566;48.414;9.118;2023-04-06T11:50:08;14.40;47.00
1155;DHT22;566;48.414;9.118;2023-04-06T11:52:34;14.20;46.20
1155;DHT22;566;48.414;9.118;2023-04-06T11:55:16;14.40;47.10
1155;DHT22;566;48.414;9.118;2023-04-06T11:57:42;14.50;46.10
1155;DHT22;566;48.414;9.118;2023-04-06T12:00:09;14.20;45.80
1155;DHT22;566;48.414;9.118;2023-04-06T12:02:37;14.10;46.60
1155;DHT22;566;48.414;9.118;2023-04-06T12:05:04;14.40;47.90
1155;DHT22;566;48.414;9.118;2023-04-06T12:07:31;14.60;47.60
1155;DHT22;566;48.414;9.118;2023-04-06T12:09:57;14.70;45.00
1155;DHT22;566;48.414;9.118;2023-04-06T12:12:23;14.80;48.10
1155;DHT22;566;48.414;9.118;2023-04-06T12:14:48;15.20;46.30
1155;DHT22;566;48.414;9.118;2023-04-06T12:17:14;15.00;48.70
1155;DHT22;566;48.414;9.118;2023-04-06T12:19:40;14.40;49.10
1155;DHT22;566;48.414;9.118;2023-04-06T12:22:05;14.00;51.10
1155;DHT22;566;48.414;9.118;2023-04-06T12:24:31;14.00;50.60
1155;DHT22;566;48.414;9.118;2023-04-06T12:26:56;13.80;48.10
1155;DHT22;566;48.414;9.118;2023-04-06T12:29:23;13.50;48.20
1155;DHT22;566;48.414;9.118;2023-04-06T12:31:49;13.50;50.80
1155;DHT22;566;48.414;9.118;2023-04-06T12:34:14;13.70;51.40
1155;DHT22;566;48.414;9.118;2023-04-06T12:36:40;13.50;49.00
1155;DHT22;566;48.414;9.118;2023-04-06T12:39:06;13.80;50.10
1155;DHT22;566;48.414;9.118;2023-04-06T12:41:31;13.80;48.80
1155;DHT22;566;48.414;9.118;2023-04-06T12:43:58;13.80;50.30
1155;DHT22;566;48.414;9.118;2023-04-06T12:46:24;13.60;48.80
1155;DHT22;566;48.414;9.118;2023-04-06T12:48:51;14.00;50.80
1155;DHT22;566;48.414;9.118;2023-04-06T12:51:19;14.20;49.40
1155;DHT22;566;48.414;9.118;2023-04-06T12:53:45;14.10;50.20
1155;DHT22;566;48.414;9.118;2023-04-06T12:56:16;13.80;48.70
1155;DHT22;566;48.414;9.118;2023-04-06T12:58:43;13.80;49.00
1155;DHT22;566;48.414;9.118;2023-04-06T13:01:08;14.10;49.30
1155;DHT22;566;48.414;9.118;2023-04-06T13:03:37;14.30;50.30
1155;DHT22;566;48.414;9.118;2023-04-06T13:06:02;15.20;49.40
1155;DHT22;566;48.414;9.118;2023-04-06T13:08:28;15.30;47.90
1155;DHT22;566;48.414;9.118;2023-04-06T13:10:54;15.70;45.60
1155;DHT22;566;48.414;9.118;2023-04-06T13:13:27;15.50;46.50
1155;DHT22;566;48.414;9.118;2023-04-06T13:15:54;15.10;47.90
1155;DHT22;566;48.414;9.118;2023-04-06T13:18:21;15.20;47.00
1155;DHT22;566;48.414;9.118;2023-04-06T13:20:48;15.30;46.90
1155;DHT22;566;48.414;9.118;2023-04-06T13:23:14;15.40;45.20
1155;DHT22;566;48.414;9.118;2023-04-06T13:25:40;15.70;46.10
1155;DHT22;566;48.414;9.118;2023-04-06T13:28:05;16.40;45.50
1155;DHT22;566;48.414;9.118;2023-04-06T13:30:31;16.60;44.20
1155;DHT22;566;48.414;9.118;2023-04-06T13:32:56;16.30;45.80
1155;DHT22;566;48.414;9.118;2023-04-06T13:35:22;15.90;44.40
1155;DHT22;566;48.414;9.118;2023-04-06T13:37:48;16.50;45.40
1155;DHT22;566;48.414;9.118;2023-04-06T13:40:14;16.30;44.20
1155;DHT22;566;48.414;9.118;2023-04-06T13:42:39;15.80;44.30
1155;DHT22;566;48.414;9.118;2023-04-06T13:45:06;15.90;45.10
1155;DHT22;566;48.414;9.118;2023-04-06T13:47:33;15.90;45.50
1155;DHT22;566;48.414;9.118;2023-04-06T13:49:58;15.40;44.40
1155;DHT22;566;48.414;9.118;2023-04-06T13:52:24;14.70;45.10
1155;DHT22;566;48.414;9.118;2023-04-06T13:54:50;14.50;44.60
1155;DHT22;566;48.414;9.118;2023-04-06T13:57:16;14.30;45.70
1155;DHT22;566;48.414;9.118;2023-04-06T13:59:42;14.30;44.80
1155;DHT22;566;48.414;9.118;2023-04-06T14:02:09;14.40;44.50
1155;DHT22;566;48.414;9.118;2023-04-06T14:04:35;14.30;44.70
1155;DHT22;566;48.414;9.118;2023-04-06T14:07:01;14.60;45.20
1155;DHT22;566;48.414;9.118;2023-04-06T14:09:28;14.80;44.60
1155;DHT22;566;48.414;9.118;2023-04-06T14:11:54;15.40;44.70
1155;DHT22;566;48.414;9.118;2023-04-06T14:14:20;15.50;45.20
1155;DHT22;566;48.414;9.118;2023-04-06T14:16:46;15.50;42.40
1155;DHT22;566;48.414;9.118;2023-04-06T14:19:14;15.90;44.50
1155;DHT22;566;48.414;9.118;2023-04-06T14:21:41;15.90;43.40
1155;DHT22;566;48.414;9.118;2023-04-06T14:24:08;15.00;43.80
1155;DHT22;566;48.414;9.118;2023-04-06T14:26:35;14.50;44.80
1155;DHT22;566;48.414;9.118;2023-04-06T14:29:01;14.60;45.00
1155;DHT22;566;48.414;9.118;2023-04-06T14:31:26;14.80;45.40
1155;DHT22;566;48.414;9.118;2023-04-06T14:33:52;15.30;45.60
1155;DHT22;566;48.414;9.118;2023-04-06T14:36:18;16.50;43.80
1155;DHT22;566;48.414;9.118;2023-04-06T14:38:43;18.00;43.40
1155;DHT22;566;48.414;9.118;2023-04-06T14:41:16;17.90;41.50
1155;DHT22;566;48.414;9.118;2023-04-06T14:43:42;16.90;42.40
1155;DHT22;566;48.414;9.118;2023-04-06T14:46:07;16.50;42.30
1155;DHT22;566;48.414;9.118;2023-04-06T14:48:34;16.00;42.80
1155;DHT22;566;48.414;9.118;2023-04-06T14:51:00;16.20;45.20
1155;DHT22;566;48.414;9.118;2023-04-06T14:53:26;17.10;43.90
1155;DHT22;566;48.414;9.118;2023-04-06T14:55:53;17.70;42.50
1155;DHT22;566;48.414;9.118;2023-04-06T14:58:19;17.60;42.30
1155;DHT22;566;48.414;9.118;2023-04-06T15:00:46;16.50;42.90
1155;DHT22;566;48.414;9.118;2023-04-06T15:03:11;15.70;43.40
1155;DHT22;566;48.414;9.118;2023-04-06T15:05:37;15.80;44.00
1155;DHT22;566;48.414;9.118;2023-04-06T15:08:03;16.10;43.70
1155;DHT22;566;48.414;9.118;2023-04-06T15:10:34;16.20;43.10
1155;DHT22;566;48.414;9.118;2023-04-06T15:12:59;16.10;42.90
1155;DHT22;566;48.414;9.118;2023-04-06T15:15:26;15.50;43.40
1155;DHT22;566;48.414;9.118;2023-04-06T15:17:51;15.40;43.80
1155;DHT22;566;48.414;9.118;2023-04-06T15:20:17;15.40;44.00
1155;DHT22;566;48.414;9.118;2023-04-06T15:22:46;15.10;44.40
1155;DHT22;566;48.414;9.118;2023-04-06T15:25:11;15.20;44.60
1155;DHT22;566;48.414;9.118;2023-04-06T15:27:37;14.90;45.50
1155;DHT22;566;48.414;9.118;2023-04-06T15:30:03;14.80;44.90
1155;DHT22;566;48.414;9.118;2023-04-06T15:32:29;14.20;45.00
1155;DHT22;566;48.414;9.118;2023-04-06T15:34:59;14.10;46.80
1155;DHT22;566;48.414;9.118;2023-04-06T15:37:27;13.80;46.40
1155;DHT22;566;48.414;9.118;2023-04-06T15:39:53;13.50;48.40
1155;DHT22;566;48.414;9.118;2023-04-06T15:42:18;13.20;47.30
1155;DHT22;566;48.414;9.118;2023-04-06T15:44:44;12.80;48.30
1155;DHT22;566;48.414;9.118;2023-04-06T15:47:10;12.50;50.20
1155;DHT22;566;48.414;9.118;2023-04-06T15:49:35;12.40;50.10
1155;DHT22;566;48.414;9.118;2023-04-06T15:52:01;12.50;50.10
1155;DHT22;566;48.414;9.118;2023-04-06T15:54:27;12.30;50.10
1155;DHT22;566;48.414;9.118;2023-04-06T15:56:54;12.20;50.20
1155;DHT22;566;48.414;9.118;2023-04-06T15:59:21;12.30;50.80
1155;DHT22;566;48.414;9.118;2023-04-06T16:01:46;12.30;50.30
1155;DHT22;566;48.414;9.118;2023-04-06T16:04:12;12.30;50.90
1155;DHT22;566;48.414;9.118;2023-04-06T16:06:42;12.40;50.40
1155;DHT22;566;48.414;9.118;2023-04-06T16:09:08;12.50;50.40
1155;DHT22;566;48.414;9.118;2023-04-06T16:11:33;12.60;50.10
1155;DHT22;566;48.414;9.118;2023-04-06T16:14:01;12.70;50.10
1155;DHT22;566;48.414;9.118;2023-04-06T16:16:27;12.80;49.50
1155;DHT22;566;48.414;9.118;2023-04-06T16:19:00;12.90;49.10
1155;DHT22;566;48.414;9.118;2023-04-06T16:21:36;12.80;49.10
1155;DHT22;566;48.414;9.118;2023-04-06T16:24:02;12.60;50.10
1155;DHT22;566;48.414;9.118;2023-04-06T16:26:29;12.40;50.00
1155;DHT22;566;48.414;9.118;2023-04-06T16:28:57;12.10;50.00